sensor_id;sensor_type;location;lat;lon;timestamp;P1;durP1;ratioP1;P2;durP2;ratioP2
13566;SDS011;6855;48.112;11.298;2023-04-03T00:02:03;7.80;;;5.00;;
13566;SDS011;6855;48.112;11.298;2023-04-03T00:04:30;8.43;;;4.87;;
13566;SDS011;6855;48.112;11.298;2023-04-03T00:06:57;7.93;;;5.13;;
13566;SDS011;6855;48.112;11.298;2023-04-03T00:09:24;7.47;;;4.10;;
13566;SDS011;6855;48.112;11.298;2023-04-03T00:11:52;7.80;;;4.70;;
13566;SDS011;6855;48.112;11.298;2023-04-03T00:14:20;8.13;;;4.90;;
13566;SDS011;6855;48.112;11.298;2023-04-03T00:16:47;10.40;;;4.43;;
13566;SDS011;6855;48.112;11.298;2023-04-03T00:19:14;8.03;;;4.87;;
13566;SDS011;6855;48.112;11.298;2023-04-03T00:21:42;6.70;;;4.40;;
13566;SDS011;6855;48.112;11.298;2023-04-03T00:24:09;8.30;;;4.73;;
13566;SDS011;6855;48.112;11.298;2023-04-03T00:26:36;12.23;;;4.90;;
13566;SDS011;6855;48.112;11.298;2023-04-03T00:29:04;9.17;;;4.67;;
13566;SDS011;6855;48.112;11.298;2023-04-03T00:31:32;12.13;;;5.20;;
13566;SDS011;6855;48.112;11.298;2023-04-03T00:33:59;10.10;;;4.13;;
13566;SDS011;6855;48.112;11.298;2023-04-03T00:36:26;9.63;;;5.23;;
13566;SDS011;6855;48.112;11.298;2023-04-03T00:38:54;9.10;;;4.50;;
13566;SDS011;6855;48.112;11.298;2023-04-03T00:41:21;6.67;;;4.70;;
13566;SDS011;6855;48.112;11.298;2023-04-03T00:43:48;5.67;;;4.20;;
13566;SDS011;6855;48.112;11.298;2023-04-03T00:46:15;8.90;;;4.50;;
13566;SDS011;6855;48.112;11.298;2023-04-03T00:48:44;7.33;;;4.17;;
13566;SDS011;6855;48.112;11.298;2023-04-03T00:51:12;7.33;;;4.43;;
13566;SDS011;6855;48.112;11.298;2023-04-03T00:53:43;7.67;;;4.80;;
13566;SDS011;6855;48.112;11.298;2023-04-03T00:56:11;6.93;;;4.50;;
13566;SDS011;6855;48.112;11.298;2023-04-03T00:58:40;7.40;;;4.83;;
13566;SDS011;6855;48.112;11.298;2023-04-03T01:01:10;8.53;;;4.60;;
13566;SDS011;6855;48.112;11.298;2023-04-03T01:03:39;7.17;;;4.70;;
13566;SDS011;6855;48.112;11.298;2023-04-03T01:06:08;4.83;;;4.07;;
13566;SDS011;6855;48.112;11.298;2023-04-03T01:08:35;7.93;;;4.93;;
13566;SDS011;6855;48.112;11.298;2023-04-03T01:11:02;7.23;;;4.90;;
13566;SDS011;6855;48.112;11.298;2023-04-03T01:13:31;5.00;;;3.87;;
13566;SDS011;6855;48.112;11.298;2023-04-03T01:16:00;15.03;;;5.10;;
13566;SDS011;6855;48.112;11.298;2023-04-03T01:18:27;7.60;;;4.83;;
13566;SDS011;6855;48.112;11.298;2023-04-03T01:23:43;6.23;;;4.10;;
13566;SDS011;6855;48.112;11.298;2023-04-03T01:26:15;6.57;;;4.17;;
13566;SDS011;6855;48.112;11.298;2023-04-03T01:28:42;9.00;;;4.40;;
13566;SDS011;6855;48.112;11.298;2023-04-03T01:31:12;4.50;;;3.90;;
13566;SDS011;6855;48.112;11.298;2023-04-03T01:33:42;5.50;;;4.00;;
13566;SDS011;6855;48.112;11.298;2023-04-03T01:36:10;5.83;;;4.10;;
13566;SDS011;6855;48.112;11.298;2023-04-03T01:38:40;7.90;;;3.93;;
13566;SDS011;6855;48.112;11.298;2023-04-03T01:41:07;6.57;;;4.20;;
13566;SDS011;6855;48.112;11.298;2023-04-03T01:43:34;4.57;;;3.87;;
13566;SDS011;6855;48.112;11.298;2023-04-03T01:46:02;3.90;;;3.43;;
13566;SDS011;6855;48.112;11.298;2023-04-03T01:48:29;9.13;;;4.43;;
13566;SDS011;6855;48.112;11.298;2023-04-03T01:50:57;5.23;;;3.60;;
13566;SDS011;6855;48.112;11.298;2023-04-03T01:53:24;5.20;;;4.23;;
13566;SDS011;6855;48.112;11.298;2023-04-03T01:55:52;6.13;;;3.93;;
13566;SDS011;6855;48.112;11.298;2023-04-03T01:58:19;3.80;;;2.80;;
13566;SDS011;6855;48.112;11.298;2023-04-03T02:00:46;5.53;;;4.00;;
13566;SDS011;6855;48.112;11.298;2023-04-03T02:03:13;6.53;;;3.07;;
13566;SDS011;6855;48.112;11.298;2023-04-03T02:05:41;8.33;;;3.70;;
13566;SDS011;6855;48.112;11.298;2023-04-03T02:08:09;4.57;;;3.73;;
13566;SDS011;6855;48.112;11.298;2023-04-03T02:10:36;4.60;;;3.53;;
13566;SDS011;6855;48.112;11.298;2023-04-03T02:13:04;5.47;;;3.77;;
13566;SDS011;6855;48.112;11.298;2023-04-03T02:15:31;7.10;;;3.10;;
13566;SDS011;6855;48.112;11.298;2023-04-03T02:17:58;4.03;;;3.27;;
13566;SDS011;6855;48.112;11.298;2023-04-03T02:20:26;8.93;;;5.10;;
13566;SDS011;6855;48.112;11.298;2023-04-03T02:22:53;3.50;;;3.00;;
13566;SDS011;6855;48.112;11.298;2023-04-03T02:25:22;5.67;;;3.17;;
13566;SDS011;6855;48.112;11.298;2023-04-03T02:27:49;4.57;;;3.73;;
13566;SDS011;6855;48.112;11.298;2023-04-03T02:30:16;4.40;;;3.30;;
13566;SDS011;6855;48.112;11.298;2023-04-03T02:32:44;7.43;;;4.07;;
13566;SDS011;6855;48.112;11.298;2023-04-03T02:35:11;5.57;;;3.60;;
13566;SDS011;6855;48.112;11.298;2023-04-03T02:37:38;3.93;;;3.40;;
13566;SDS011;6855;48.112;11.298;2023-04-03T02:40:06;6.73;;;3.47;;
13566;SDS011;6855;48.112;11.298;2023-04-03T02:42:35;2.87;;;2.53;;
13566;SDS011;6855;48.112;11.298;2023-04-03T02:45:02;5.07;;;3.77;;
13566;SDS011;6855;48.112;11.298;2023-04-03T02:47:30;2.70;;;2.50;;
13566;SDS011;6855;48.112;11.298;2023-04-03T02:49:57;6.57;;;3.70;;
13566;SDS011;6855;48.112;11.298;2023-04-03T02:52:24;4.87;;;3.07;;
13566;SDS011;6855;48.112;11.298;2023-04-03T02:54:51;7.80;;;3.10;;
13566;SDS011;6855;48.112;11.298;2023-04-03T02:57:18;3.27;;;2.83;;
13566;SDS011;6855;48.112;11.298;2023-04-03T02:59:47;4.17;;;3.07;;
13566;SDS011;6855;48.112;11.298;2023-04-03T03:02:14;5.10;;;2.60;;
13566;SDS011;6855;48.112;11.298;2023-04-03T03:04:41;3.87;;;3.07;;
13566;SDS011;6855;48.112;11.298;2023-04-03T03:07:09;4.17;;;2.93;;
13566;SDS011;6855;48.112;11.298;2023-04-03T03:09:36;6.93;;;3.03;;
13566;SDS011;6855;48.112;11.298;2023-04-03T03:12:03;3.83;;;2.80;;
13566;SDS011;6855;48.112;11.298;2023-04-03T03:14:31;5.07;;;3.23;;
13566;SDS011;6855;48.112;11.298;2023-04-03T03:16:59;3.10;;;2.37;;
13566;SDS011;6855;48.112;11.298;2023-04-03T03:19:26;3.87;;;2.83;;
13566;SDS011;6855;48.112;11.298;2023-04-03T03:21:53;3.80;;;2.97;;
13566;SDS011;6855;48.112;11.298;2023-04-03T03:24:22;6.97;;;2.93;;
13566;SDS011;6855;48.112;11.298;2023-04-03T03:26:49;4.10;;;2.43;;
13566;SDS011;6855;48.112;11.298;2023-04-03T03:29:16;2.80;;;2.60;;
13566;SDS011;6855;48.112;11.298;2023-04-03T03:31:43;4.17;;;3.10;;
13566;SDS011;6855;48.112;11.298;2023-04-03T03:34:12;3.20;;;2.63;;
13566;SDS011;6855;48.112;11.298;2023-04-03T03:36:39;5.30;;;2.90;;
13566;SDS011;6855;48.112;11.298;2023-04-03T03:39:06;6.10;;;3.40;;
13566;SDS011;6855;48.112;11.298;2023-04-03T03:41:34;3.17;;;2.80;;
13566;SDS011;6855;48.112;11.298;2023-04-03T03:44:01;4.80;;;2.60;;
13566;SDS011;6855;48.112;11.298;2023-04-03T03:46:28;4.20;;;2.60;;
13566;SDS011;6855;48.112;11.298;2023-04-03T03:48:57;4.83;;;3.00;;
13566;SDS011;6855;48.112;11.298;2023-04-03T03:51:26;3.33;;;2.80;;
13566;SDS011;6855;48.112;11.298;2023-04-03T03:53:53;4.80;;;2.87;;
13566;SDS011;6855;48.112;11.298;2023-04-03T03:56:21;2.93;;;2.47;;
13566;SDS011;6855;48.112;11.298;2023-04-03T03:58:48;3.73;;;2.73;;
13566;SDS011;6855;48.112;11.298;2023-04-03T04:01:15;3.10;;;2.47;;
13566;SDS011;6855;48.112;11.298;2023-04-03T04:03:43;2.40;;;2.20;;
13566;SDS011;6855;48.112;11.298;2023-04-03T04:06:10;4.83;;;2.70;;
13566;SDS011;6855;48.112;11.298;2023-04-03T04:08:39;2.80;;;2.40;;
13566;SDS011;6855;48.112;11.298;2023-04-03T04:11:08;2.17;;;1.97;;
13566;SDS011;6855;48.112;11.298;2023-04-03T04:13:35;4.40;;;2.43;;
13566;SDS011;6855;48.112;11.298;2023-04-03T04:16:03;3.17;;;2.40;;
13566;SDS011;6855;48.112;11.298;2023-04-03T04:18:30;3.80;;;2.47;;
13566;SDS011;6855;48.112;11.298;2023-04-03T04:20:59;4.10;;;2.50;;
13566;SDS011;6855;48.112;11.298;2023-04-03T04:23:26;3.27;;;2.40;;
13566;SDS011;6855;48.112;11.298;2023-04-03T04:25:55;2.10;;;1.90;;
13566;SDS011;6855;48.112;11.298;2023-04-03T04:28:22;3.03;;;2.40;;
13566;SDS011;6855;48.112;11.298;2023-04-03T04:30:52;4.30;;;2.90;;
13566;SDS011;6855;48.112;11.298;2023-04-03T04:33:19;2.43;;;2.23;;
13566;SDS011;6855;48.112;11.298;2023-04-03T04:35:47;3.80;;;2.47;;
13566;SDS011;6855;48.112;11.298;2023-04-03T04:38:17;3.67;;;2.50;;
13566;SDS011;6855;48.112;11.298;2023-04-03T04:40:46;7.20;;;2.60;;
13566;SDS011;6855;48.112;11.298;2023-04-03T04:43:15;9.00;;;2.57;;
13566;SDS011;6855;48.112;11.298;2023-04-03T04:45:42;3.27;;;2.17;;
13566;SDS011;6855;48.112;11.298;2023-04-03T04:48:10;2.40;;;2.20;;
13566;SDS011;6855;48.112;11.298;2023-04-03T04:50:37;4.30;;;2.50;;
13566;SDS011;6855;48.112;11.298;2023-04-03T04:53:04;3.30;;;2.73;;
13566;SDS011;6855;48.112;11.298;2023-04-03T04:55:32;3.40;;;2.70;;
13566;SDS011;6855;48.112;11.298;2023-04-03T04:57:59;3.60;;;2.57;;
13566;SDS011;6855;48.112;11.298;2023-04-03T05:00:27;4.78;;;2.92;;
13566;SDS011;6855;48.112;11.298;2023-04-03T05:02:54;6.73;;;3.00;;
13566;SDS011;6855;48.112;11.298;2023-04-03T05:05:22;4.57;;;2.90;;
13566;SDS011;6855;48.112;11.298;2023-04-03T05:07:49;8.00;;;3.47;;
13566;SDS011;6855;48.112;11.298;2023-04-03T05:10:16;3.63;;;2.90;;
13566;SDS011;6855;48.112;11.298;2023-04-03T05:12:43;4.90;;;2.73;;
13566;SDS011;6855;48.112;11.298;2023-04-03T05:15:10;4.73;;;2.90;;
13566;SDS011;6855;48.112;11.298;2023-04-03T05:17:39;3.27;;;2.50;;
13566;SDS011;6855;48.112;11.298;2023-04-03T05:20:07;2.20;;;2.03;;
13566;SDS011;6855;48.112;11.298;2023-04-03T05:22:34;4.93;;;2.77;;
13566;SDS011;6855;48.112;11.298;2023-04-03T05:25:01;5.13;;;2.93;;
13566;SDS011;6855;48.112;11.298;2023-04-03T05:27:29;4.20;;;2.60;;
13566;SDS011;6855;48.112;11.298;2023-04-03T05:29:56;4.77;;;2.97;;
13566;SDS011;6855;48.112;11.298;2023-04-03T05:32:25;4.50;;;2.70;;
13566;SDS011;6855;48.112;11.298;2023-04-03T05:34:54;4.23;;;3.00;;
13566;SDS011;6855;48.112;11.298;2023-04-03T05:37:21;4.33;;;2.30;;
13566;SDS011;6855;48.112;11.298;2023-04-03T05:39:48;3.10;;;2.30;;
13566;SDS011;6855;48.112;11.298;2023-04-03T05:42:15;6.27;;;3.03;;
13566;SDS011;6855;48.112;11.298;2023-04-03T05:44:43;5.30;;;2.57;;
13566;SDS011;6855;48.112;11.298;2023-04-03T05:47:12;2.60;;;2.40;;
13566;SDS011;6855;48.112;11.298;2023-04-03T05:49:39;5.43;;;3.13;;
13566;SDS011;6855;48.112;11.298;2023-04-03T05:52:10;5.83;;;2.53;;
13566;SDS011;6855;48.112;11.298;2023-04-03T05:54:39;4.23;;;3.10;;
13566;SDS011;6855;48.112;11.298;2023-04-03T05:57:06;2.93;;;2.37;;
13566;SDS011;6855;48.112;11.298;2023-04-03T05:59:33;3.40;;;2.70;;
13566;SDS011;6855;48.112;11.298;2023-04-03T06:02:00;4.23;;;2.27;;
13566;SDS011;6855;48.112;11.298;2023-04-03T06:04:28;8.63;;;2.87;;
13566;SDS011;6855;48.112;11.298;2023-04-03T06:06:56;4.53;;;2.90;;
13566;SDS011;6855;48.112;11.298;2023-04-03T06:09:26;3.57;;;2.83;;
13566;SDS011;6855;48.112;11.298;2023-04-03T06:11:53;6.70;;;2.83;;
13566;SDS011;6855;48.112;11.298;2023-04-03T06:14:21;6.60;;;2.90;;
13566;SDS011;6855;48.112;11.298;2023-04-03T06:16:48;2.90;;;2.57;;
13566;SDS011;6855;48.112;11.298;2023-04-03T06:19:15;5.07;;;2.87;;
13566;SDS011;6855;48.112;11.298;2023-04-03T06:21:42;2.90;;;2.60;;
13566;SDS011;6855;48.112;11.298;2023-04-03T06:24:10;12.33;;;3.03;;
13566;SDS011;6855;48.112;11.298;2023-04-03T06:26:40;6.03;;;3.53;;
13566;SDS011;6855;48.112;11.298;2023-04-03T06:29:08;4.30;;;3.00;;
13566;SDS011;6855;48.112;11.298;2023-04-03T06:31:35;4.70;;;3.17;;
13566;SDS011;6855;48.112;11.298;2023-04-03T06:34:03;3.17;;;2.63;;
13566;SDS011;6855;48.112;11.298;2023-04-03T06:36:30;4.50;;;3.27;;
13566;SDS011;6855;48.112;11.298;2023-04-03T06:38:58;4.27;;;3.40;;
13566;SDS011;6855;48.112;11.298;2023-04-03T06:41:25;6.10;;;3.17;;
13566;SDS011;6855;48.112;11.298;2023-04-03T06:43:53;6.73;;;3.93;;
13566;SDS011;6855;48.112;11.298;2023-04-03T06:46:21;5.17;;;3.23;;
13566;SDS011;6855;48.112;11.298;2023-04-03T06:48:49;6.17;;;2.93;;
13566;SDS011;6855;48.112;11.298;2023-04-03T06:51:17;3.80;;;3.20;;
13566;SDS011;6855;48.112;11.298;2023-04-03T06:53:45;7.37;;;3.10;;
13566;SDS011;6855;48.112;11.298;2023-04-03T06:56:12;8.87;;;2.40;;
13566;SDS011;6855;48.112;11.298;2023-04-03T06:58:40;5.00;;;2.90;;
13566;SDS011;6855;48.112;11.298;2023-04-03T07:01:09;9.67;;;3.10;;
13566;SDS011;6855;48.112;11.298;2023-04-03T07:03:37;6.53;;;2.83;;
13566;SDS011;6855;48.112;11.298;2023-04-03T07:06:04;3.23;;;2.80;;
13566;SDS011;6855;48.112;11.298;2023-04-03T07:08:32;4.13;;;2.97;;
13566;SDS011;6855;48.112;11.298;2023-04-03T07:10:59;3.73;;;2.80;;
13566;SDS011;6855;48.112;11.298;2023-04-03T07:13:27;3.80;;;2.83;;
13566;SDS011;6855;48.112;11.298;2023-04-03T07:15:54;5.57;;;2.90;;
13566;SDS011;6855;48.112;11.298;2023-04-03T07:18:22;4.80;;;2.70;;
13566;SDS011;6855;48.112;11.298;2023-04-03T07:20:50;3.17;;;2.60;;
13566;SDS011;6855;48.112;11.298;2023-04-03T07:23:17;4.70;;;2.80;;
13566;SDS011;6855;48.112;11.298;2023-04-03T07:25:45;3.80;;;2.80;;
13566;SDS011;6855;48.112;11.298;2023-04-03T07:28:13;9.10;;;2.97;;
13566;SDS011;6855;48.112;11.298;2023-04-03T07:30:43;6.90;;;2.90;;
13566;SDS011;6855;48.112;11.298;2023-04-03T07:33:11;4.73;;;3.10;;
13566;SDS011;6855;48.112;11.298;2023-04-03T07:35:40;3.43;;;3.13;;
13566;SDS011;6855;48.112;11.298;2023-04-03T07:38:08;6.73;;;3.43;;
13566;SDS011;6855;48.112;11.298;2023-04-03T07:40:35;4.87;;;2.53;;
13566;SDS011;6855;48.112;11.298;2023-04-03T07:43:02;5.67;;;2.83;;
13566;SDS011;6855;48.112;11.298;2023-04-03T07:45:30;3.13;;;2.60;;
13566;SDS011;6855;48.112;11.298;2023-04-03T07:47:58;5.10;;;2.70;;
13566;SDS011;6855;48.112;11.298;2023-04-03T07:50:25;6.97;;;3.10;;
13566;SDS011;6855;48.112;11.298;2023-04-03T07:52:56;2.87;;;2.43;;
13566;SDS011;6855;48.112;11.298;2023-04-03T07:55:23;3.60;;;2.80;;
13566;SDS011;6855;48.112;11.298;2023-04-03T07:57:51;5.43;;;2.80;;
13566;SDS011;6855;48.112;11.298;2023-04-03T08:00:18;5.53;;;2.67;;
13566;SDS011;6855;48.112;11.298;2023-04-03T08:02:45;4.17;;;2.80;;
13566;SDS011;6855;48.112;11.298;2023-04-03T08:05:15;3.93;;;2.87;;
13566;SDS011;6855;48.112;11.298;2023-04-03T08:07:42;3.77;;;3.20;;
13566;SDS011;6855;48.112;11.298;2023-04-03T08:10:11;4.17;;;2.90;;
13566;SDS011;6855;48.112;11.298;2023-04-03T08:12:39;3.63;;;2.90;;
13566;SDS011;6855;48.112;11.298;2023-04-03T08:15:08;3.33;;;2.70;;
13566;SDS011;6855;48.112;11.298;2023-04-03T08:17:36;5.80;;;3.70;;
13566;SDS011;6855;48.112;11.298;2023-04-03T08:20:04;3.67;;;2.63;;
13566;SDS011;6855;48.112;11.298;2023-04-03T08:22:31;3.20;;;2.90;;
13566;SDS011;6855;48.112;11.298;2023-04-03T08:24:59;4.70;;;3.13;;
13566;SDS011;6855;48.112;11.298;2023-04-03T08:27:28;3.47;;;2.93;;
13566;SDS011;6855;48.112;11.298;2023-04-03T08:29:55;4.00;;;3.10;;
13566;SDS011;6855;48.112;11.298;2023-04-03T08:32:22;4.97;;;2.90;;
13566;SDS011;6855;48.112;11.298;2023-04-03T08:34:50;4.93;;;2.83;;
13566;SDS011;6855;48.112;11.298;2023-04-03T08:37:17;3.73;;;3.00;;
13566;SDS011;6855;48.112;11.298;2023-04-03T08:39:45;3.50;;;2.83;;
13566;SDS011;6855;48.112;11.298;2023-04-03T08:42:15;5.47;;;3.63;;
13566;SDS011;6855;48.112;11.298;2023-04-03T08:44:46;5.73;;;3.03;;
13566;SDS011;6855;48.112;11.298;2023-04-03T08:47:18;3.10;;;2.43;;
13566;SDS011;6855;48.112;11.298;2023-04-03T08:49:49;5.80;;;2.53;;
13566;SDS011;6855;48.112;11.298;2023-04-03T08:52:19;5.23;;;2.97;;
13566;SDS011;6855;48.112;11.298;2023-04-03T08:54:49;4.80;;;2.97;;
13566;SDS011;6855;48.112;11.298;2023-04-03T08:57:17;5.30;;;2.80;;
13566;SDS011;6855;48.112;11.298;2023-04-03T08:59:46;4.90;;;2.77;;
13566;SDS011;6855;48.112;11.298;2023-04-03T09:02:19;5.40;;;3.50;;
13566;SDS011;6855;48.112;11.298;2023-04-03T09:04:49;4.03;;;2.90;;
13566;SDS011;6855;48.112;11.298;2023-04-03T09:07:18;3.53;;;2.63;;
13566;SDS011;6855;48.112;11.298;2023-04-03T09:09:47;4.23;;;2.97;;
13566;SDS011;6855;48.112;11.298;2023-04-03T09:12:17;5.33;;;3.10;;
13566;SDS011;6855;48.112;11.298;2023-04-03T09:14:48;4.03;;;2.73;;
13566;SDS011;6855;48.112;11.298;2023-04-03T09:17:20;4.30;;;3.07;;
13566;SDS011;6855;48.112;11.298;2023-04-03T09:19:49;4.23;;;2.77;;
13566;SDS011;6855;48.112;11.298;2023-04-03T09:22:20;5.47;;;3.20;;
13566;SDS011;6855;48.112;11.298;2023-04-03T09:24:50;4.30;;;2.97;;
13566;SDS011;6855;48.112;11.298;2023-04-03T09:27:19;6.43;;;3.30;;
13566;SDS011;6855;48.112;11.298;2023-04-03T09:29:47;4.13;;;3.27;;
13566;SDS011;6855;48.112;11.298;2023-04-03T09:32:18;4.97;;;2.57;;
13566;SDS011;6855;48.112;11.298;2023-04-03T09:34:46;5.83;;;3.00;;
13566;SDS011;6855;48.112;11.298;2023-04-03T09:37:32;4.27;;;2.83;;
13566;SDS011;6855;48.112;11.298;2023-04-03T09:40:00;6.77;;;3.17;;
13566;SDS011;6855;48.112;11.298;2023-04-03T09:42:28;4.67;;;3.00;;
13566;SDS011;6855;48.112;11.298;2023-04-03T09:44:59;3.63;;;2.87;;
13566;SDS011;6855;48.112;11.298;2023-04-03T09:47:27;3.33;;;3.03;;
13566;SDS011;6855;48.112;11.298;2023-04-03T09:50:08;12.70;;;6.07;;
13566;SDS011;6855;48.112;11.298;2023-04-03T09:52:35;17.80;;;7.73;;
13566;SDS011;6855;48.112;11.298;2023-04-03T09:55:06;16.80;;;7.60;;
13566;SDS011;6855;48.112;11.298;2023-04-03T09:57:33;6.90;;;4.60;;
13566;SDS011;6855;48.112;11.298;2023-04-03T10:00:03;3.47;;;2.23;;
13566;SDS011;6855;48.112;11.298;2023-04-03T10:02:32;5.00;;;2.47;;
13566;SDS011;6855;48.112;11.298;2023-04-03T10:05:01;3.00;;;2.40;;
13566;SDS011;6855;48.112;11.298;2023-04-03T10:07:30;3.93;;;2.77;;
13566;SDS011;6855;48.112;11.298;2023-04-03T10:09:59;3.63;;;2.20;;
13566;SDS011;6855;48.112;11.298;2023-04-03T10:12:26;5.40;;;2.50;;
13566;SDS011;6855;48.112;11.298;2023-04-03T10:14:54;3.30;;;2.30;;
13566;SDS011;6855;48.112;11.298;2023-04-03T10:17:25;5.17;;;2.30;;
13566;SDS011;6855;48.112;11.298;2023-04-03T10:19:54;4.77;;;2.67;;
13566;SDS011;6855;48.112;11.298;2023-04-03T10:22:26;4.13;;;2.90;;
13566;SDS011;6855;48.112;11.298;2023-04-03T10:24:59;3.50;;;2.60;;
13566;SDS011;6855;48.112;11.298;2023-04-03T10:27:32;6.73;;;2.60;;
13566;SDS011;6855;48.112;11.298;2023-04-03T10:30:04;4.53;;;2.43;;
13566;SDS011;6855;48.112;11.298;2023-04-03T10:32:46;7.10;;;2.97;;
13566;SDS011;6855;48.112;11.298;2023-04-03T10:35:16;4.07;;;2.80;;
13566;SDS011;6855;48.112;11.298;2023-04-03T10:37:51;3.40;;;2.60;;
13566;SDS011;6855;48.112;11.298;2023-04-03T10:40:24;3.50;;;2.57;;
13566;SDS011;6855;48.112;11.298;2023-04-03T10:42:57;4.83;;;3.03;;
13566;SDS011;6855;48.112;11.298;2023-04-03T10:45:27;3.53;;;2.63;;
13566;SDS011;6855;48.112;11.298;2023-04-03T10:48:00;3.77;;;2.97;;
13566;SDS011;6855;48.112;11.298;2023-04-03T10:50:31;3.60;;;2.70;;
13566;SDS011;6855;48.112;11.298;2023-04-03T10:53:04;3.53;;;2.87;;
13566;SDS011;6855;48.112;11.298;2023-04-03T10:55:34;6.57;;;2.87;;
13566;SDS011;6855;48.112;11.298;2023-04-03T10:58:03;4.13;;;2.80;;
13566;SDS011;6855;48.112;11.298;2023-04-03T11:00:34;4.73;;;2.23;;
13566;SDS011;6855;48.112;11.298;2023-04-03T11:03:05;3.43;;;2.63;;
13566;SDS011;6855;48.112;11.298;2023-04-03T11:05:34;3.63;;;2.53;;
13566;SDS011;6855;48.112;11.298;2023-04-03T11:08:04;2.97;;;2.50;;
13566;SDS011;6855;48.112;11.298;2023-04-03T11:10:35;6.50;;;2.63;;
13566;SDS011;6855;48.112;11.298;2023-04-03T11:13:06;2.97;;;2.53;;
13566;SDS011;6855;48.112;11.298;2023-04-03T11:15:35;5.20;;;2.53;;
13566;SDS011;6855;48.112;11.298;2023-04-03T11:18:04;6.20;;;2.80;;
13566;SDS011;6855;48.112;11.298;2023-04-03T11:20:34;2.70;;;2.40;;
13566;SDS011;6855;48.112;11.298;2023-04-03T11:23:03;5.23;;;2.87;;
13566;SDS011;6855;48.112;11.298;2023-04-03T11:25:31;4.80;;;2.47;;
13566;SDS011;6855;48.112;11.298;2023-04-03T11:28:00;5.30;;;2.40;;
13566;SDS011;6855;48.112;11.298;2023-04-03T11:30:30;4.13;;;2.30;;
13566;SDS011;6855;48.112;11.298;2023-04-03T11:35:44;4.50;;;2.20;;
13566;SDS011;6855;48.112;11.298;2023-04-03T11:38:14;2.13;;;1.90;;
13566;SDS011;6855;48.112;11.298;2023-04-03T11:40:45;3.00;;;2.50;;
13566;SDS011;6855;48.112;11.298;2023-04-03T11:43:18;2.60;;;2.13;;
13566;SDS011;6855;48.112;11.298;2023-04-03T11:45:50;2.90;;;2.00;;
13566;SDS011;6855;48.112;11.298;2023-04-03T11:53:49;5.07;;;2.60;;
13566;SDS011;6855;48.112;11.298;2023-04-03T11:56:29;8.73;;;2.87;;
13566;SDS011;6855;48.112;11.298;2023-04-03T12:01:46;5.80;;;3.67;;
13566;SDS011;6855;48.112;11.298;2023-04-03T12:04:14;5.13;;;2.43;;
13566;SDS011;6855;48.112;11.298;2023-04-03T12:06:50;3.50;;;1.80;;
13566;SDS011;6855;48.112;11.298;2023-04-03T12:09:24;1.77;;;1.40;;
13566;SDS011;6855;48.112;11.298;2023-04-03T12:11:52;2.60;;;1.60;;
13566;SDS011;6855;48.112;11.298;2023-04-03T12:14:21;10.10;;;1.87;;
13566;SDS011;6855;48.112;11.298;2023-04-03T12:16:49;2.20;;;1.60;;
13566;SDS011;6855;48.112;11.298;2023-04-03T12:19:33;4.63;;;1.80;;
13566;SDS011;6855;48.112;11.298;2023-04-03T12:22:05;3.30;;;1.53;;
13566;SDS011;6855;48.112;11.298;2023-04-03T12:24:35;3.27;;;1.40;;
13566;SDS011;6855;48.112;11.298;2023-04-03T12:29:51;3.17;;;1.10;;
13566;SDS011;6855;48.112;11.298;2023-04-03T12:32:24;2.20;;;1.10;;
13566;SDS011;6855;48.112;11.298;2023-04-03T12:35:03;1.97;;;1.27;;
13566;SDS011;6855;48.112;11.298;2023-04-03T12:37:39;2.40;;;1.30;;
13566;SDS011;6855;48.112;11.298;2023-04-03T12:40:13;1.10;;;1.00;;
13566;SDS011;6855;48.112;11.298;2023-04-03T12:42:53;1.30;;;1.10;;
13566;SDS011;6855;48.112;11.298;2023-04-03T12:45:25;1.57;;;1.40;;
13566;SDS011;6855;48.112;11.298;2023-04-03T12:47:53;2.93;;;1.40;;
13566;SDS011;6855;48.112;11.298;2023-04-03T12:50:21;1.70;;;1.37;;
13566;SDS011;6855;48.112;11.298;2023-04-03T12:52:51;2.93;;;1.50;;
13566;SDS011;6855;48.112;11.298;2023-04-03T12:55:23;5.13;;;1.30;;
13566;SDS011;6855;48.112;11.298;2023-04-03T12:57:50;2.10;;;1.47;;
13566;SDS011;6855;48.112;11.298;2023-04-03T13:00:19;3.17;;;1.40;;
13566;SDS011;6855;48.112;11.298;2023-04-03T13:02:46;2.30;;;1.50;;
13566;SDS011;6855;48.112;11.298;2023-04-03T13:05:18;1.60;;;1.50;;
13566;SDS011;6855;48.112;11.298;2023-04-03T13:07:48;2.60;;;1.43;;
13566;SDS011;6855;48.112;11.298;2023-04-03T13:10:16;2.03;;;0.90;;
13566;SDS011;6855;48.112;11.298;2023-04-03T13:12:47;2.27;;;1.33;;
13566;SDS011;6855;48.112;11.298;2023-04-03T13:15:15;2.63;;;1.57;;
13566;SDS011;6855;48.112;11.298;2023-04-03T13:17:42;4.35;;;1.60;;
13566;SDS011;6855;48.112;11.298;2023-04-03T13:20:11;1.57;;;1.30;;
13566;SDS011;6855;48.112;11.298;2023-04-03T13:22:40;3.90;;;1.70;;
13566;SDS011;6855;48.112;11.298;2023-04-03T13:25:09;1.40;;;1.30;;
13566;SDS011;6855;48.112;11.298;2023-04-03T13:27:37;2.87;;;1.47;;
13566;SDS011;6855;48.112;11.298;2023-04-03T13:30:18;1.77;;;1.37;;
13566;SDS011;6855;48.112;11.298;2023-04-03T13:32:47;2.00;;;1.57;;
13566;SDS011;6855;48.112;11.298;2023-04-03T13:38:07;3.83;;;1.83;;
13566;SDS011;6855;48.112;11.298;2023-04-03T13:40:48;4.80;;;1.43;;
13566;SDS011;6855;48.112;11.298;2023-04-03T13:43:19;2.00;;;1.40;;
13566;SDS011;6855;48.112;11.298;2023-04-03T13:45:56;5.30;;;1.27;;
13566;SDS011;6855;48.112;11.298;2023-04-03T13:48:25;2.23;;;1.30;;
13566;SDS011;6855;48.112;11.298;2023-04-03T13:50:53;1.70;;;1.03;;
13566;SDS011;6855;48.112;11.298;2023-04-03T13:53:21;2.50;;;1.30;;
13566;SDS011;6855;48.112;11.298;2023-04-03T13:55:59;2.27;;;1.20;;
13566;SDS011;6855;48.112;11.298;2023-04-03T13:58:27;2.27;;;1.60;;
13566;SDS011;6855;48.112;11.298;2023-04-03T14:00:56;2.20;;;1.43;;
13566;SDS011;6855;48.112;11.298;2023-04-03T14:03:28;1.73;;;1.10;;
13566;SDS011;6855;48.112;11.298;2023-04-03T14:05:56;3.40;;;1.30;;
13566;SDS011;6855;48.112;11.298;2023-04-03T14:08:23;1.53;;;1.27;;
13566;SDS011;6855;48.112;11.298;2023-04-03T14:10:50;1.87;;;1.30;;
13566;SDS011;6855;48.112;11.298;2023-04-03T14:13:18;5.40;;;1.90;;
13566;SDS011;6855;48.112;11.298;2023-04-03T14:15:47;6.60;;;2.80;;
13566;SDS011;6855;48.112;11.298;2023-04-03T14:18:18;3.13;;;1.30;;
13566;SDS011;6855;48.112;11.298;2023-04-03T14:20:45;1.47;;;1.27;;
13566;SDS011;6855;48.112;11.298;2023-04-03T14:23:13;2.03;;;1.23;;
13566;SDS011;6855;48.112;11.298;2023-04-03T14:25:40;3.23;;;1.60;;
13566;SDS011;6855;48.112;11.298;2023-04-03T14:28:14;4.20;;;1.40;;
13566;SDS011;6855;48.112;11.298;2023-04-03T14:30:44;4.10;;;1.50;;
13566;SDS011;6855;48.112;11.298;2023-04-03T14:33:13;2.70;;;1.30;;
13566;SDS011;6855;48.112;11.298;2023-04-03T14:35:42;4.00;;;1.40;;
13566;SDS011;6855;48.112;11.298;2023-04-03T14:38:19;1.90;;;1.40;;
13566;SDS011;6855;48.112;11.298;2023-04-03T14:40:48;3.00;;;1.60;;
13566;SDS011;6855;48.112;11.298;2023-04-03T14:43:17;1.17;;;1.03;;
13566;SDS011;6855;48.112;11.298;2023-04-03T14:45:59;2.40;;;1.23;;
13566;SDS011;6855;48.112;11.298;2023-04-03T14:48:31;2.23;;;1.47;;
13566;SDS011;6855;48.112;11.298;2023-04-03T14:59:36;1.33;;;1.03;;
13566;SDS011;6855;48.112;11.298;2023-04-03T15:02:36;5.20;;;1.17;;
13566;SDS011;6855;48.112;11.298;2023-04-03T15:04:59;1.70;;;1.33;;
13566;SDS011;6855;48.112;11.298;2023-04-03T15:07:29;1.83;;;1.10;;
13566;SDS011;6855;48.112;11.298;2023-04-03T15:12:52;3.00;;;1.50;;
13566;SDS011;6855;48.112;11.298;2023-04-03T15:15:37;1.40;;;1.10;;
13566;SDS011;6855;48.112;11.298;2023-04-03T15:18:04;3.20;;;1.30;;
13566;SDS011;6855;48.112;11.298;2023-04-03T15:20:38;2.80;;;1.97;;
13566;SDS011;6855;48.112;11.298;2023-04-03T15:23:25;3.07;;;1.27;;
13566;SDS011;6855;48.112;11.298;2023-04-03T15:25:55;4.07;;;1.47;;
13566;SDS011;6855;48.112;11.298;2023-04-03T15:28:27;14.17;;;3.70;;
13566;SDS011;6855;48.112;11.298;2023-04-03T15:30:58;5.57;;;2.30;;